createdAt,value
2023-02-12T00:00:51.941Z,6.40
2023-02-12T00:04:53.764Z,6.50
2023-02-12T00:08:56.889Z,6.50
2023-02-12T00:12:58.603Z,6.50
2023-02-12T00:17:00.609Z,6.40
2023-02-12T00:21:03.114Z,6.40
2023-02-12T00:25:05.357Z,6.40
2023-02-12T00:29:07.355Z,6.40
2023-02-12T00:33:09.332Z,6.40
2023-02-12T00:37:11.008Z,6.30
2023-02-12T00:41:13.373Z,6.30
2023-02-12T00:45:15.061Z,6.30
2023-02-12T00:49:18.916Z,6.30
2023-02-12T00:53:20.652Z,6.30
2023-02-12T00:57:22.349Z,6.30
2023-02-12T01:01:24.248Z,6.40
2023-02-12T01:05:26.125Z,6.30
2023-02-12T01:09:27.847Z,6.30
2023-02-12T01:13:31.985Z,6.30
2023-02-12T01:17:33.686Z,6.30
2023-02-12T01:21:35.671Z,6.30
2023-02-12T01:25:38.633Z,6.30
2023-02-12T01:29:44.532Z,6.30
2023-02-12T01:33:50.825Z,6.30
2023-02-12T01:37:52.515Z,6.30
2023-02-12T01:41:54.217Z,6.30
2023-02-12T01:45:56.370Z,6.30
2023-02-12T01:49:58.388Z,6.30
2023-02-12T01:54:04.825Z,6.30
2023-02-12T01:58:07.348Z,6.30
2023-02-12T02:02:09.413Z,6.20
2023-02-12T02:06:31.920Z,6.30
2023-02-12T02:10:33.610Z,6.20
2023-02-12T02:14:36.497Z,6.20
2023-02-12T02:19:01.550Z,6.20
2023-02-12T02:23:30.864Z,6.20
2023-02-12T02:27:51.526Z,6.20
2023-02-12T02:32:18.128Z,6.20
2023-02-12T02:36:47.930Z,6.30
2023-02-12T02:41:08.394Z,6.20
2023-02-12T02:45:17.956Z,6.20
2023-02-12T02:49:33.436Z,6.20
2023-02-12T02:53:58.152Z,6.20
2023-02-12T02:58:07.355Z,6.20
2023-02-12T03:02:35.265Z,6.10
2023-02-12T03:06:40.207Z,6.10
2023-02-12T03:10:50.807Z,6.20
2023-02-12T03:14:59.634Z,6.30
2023-02-12T03:19:32.203Z,6.30
2023-02-12T03:23:52.506Z,6.10
2023-02-12T03:28:00.927Z,6.20
2023-02-12T03:32:28.023Z,6.10
2023-02-12T03:36:41.995Z,6.10
2023-02-12T03:40:51.642Z,6.10
2023-02-12T03:45:01.700Z,6.20
2023-02-12T03:49:24.098Z,6.20
2023-02-12T03:53:27.578Z,6.10
2023-02-12T03:57:35.083Z,6.10
2023-02-12T04:01:36.995Z,6.10
2023-02-12T04:05:38.790Z,6.10
2023-02-12T04:09:40.705Z,6.10
2023-02-12T04:14:20.283Z,6.20
2023-02-12T04:18:42.262Z,6.20
2023-02-12T04:22:49.763Z,6.20
2023-02-12T04:27:23.026Z,6.20
2023-02-12T04:31:33.234Z,6.20
2023-02-12T04:35:47.332Z,6.20
2023-02-12T04:39:51.460Z,6.10
2023-02-12T04:43:53.464Z,6.10
2023-02-12T04:47:55.602Z,6.00
2023-02-12T04:51:57.322Z,6.10
2023-02-12T04:55:59.017Z,6.00
2023-02-12T05:00:00.727Z,6.00
2023-02-12T05:04:03.018Z,6.00
2023-02-12T05:08:04.859Z,6.00
2023-02-12T05:12:06.739Z,6.00
2023-02-12T05:16:08.728Z,6.00
2023-02-12T05:20:10.935Z,6.00
2023-02-12T05:24:12.643Z,6.00
2023-02-12T05:28:14.738Z,6.00
2023-02-12T05:32:16.490Z,6.00
2023-02-12T05:36:21.406Z,6.00
2023-02-12T05:40:23.070Z,6.00
2023-02-12T05:44:24.751Z,6.00
2023-02-12T05:48:27.197Z,6.00
2023-02-12T05:52:28.861Z,6.00
2023-02-12T05:56:32.903Z,6.00
2023-02-12T06:00:34.817Z,6.00
2023-02-12T06:04:36.518Z,6.10
2023-02-12T06:08:39.189Z,6.00
2023-02-12T06:12:40.914Z,6.00
2023-02-12T06:16:45.589Z,6.00
2023-02-12T06:20:47.265Z,6.00
2023-02-12T06:24:48.943Z,6.00
2023-02-12T06:28:51.033Z,6.00
2023-02-12T06:32:53.210Z,6.00
2023-02-12T06:36:54.897Z,6.00
2023-02-12T06:40:56.544Z,6.00
2023-02-12T06:44:58.219Z,6.10
2023-02-12T06:49:01.275Z,6.00
2023-02-12T06:53:03.042Z,6.00
2023-02-12T06:57:04.752Z,6.00
2023-02-12T07:01:13.287Z,6.00
2023-02-12T07:05:15.139Z,6.00
2023-02-12T07:09:16.886Z,6.00
2023-02-12T07:13:18.555Z,6.00
2023-02-12T07:17:20.239Z,6.00
2023-02-12T07:21:22.228Z,6.10
2023-02-12T07:25:23.883Z,6.10
2023-02-12T07:29:25.617Z,6.10
2023-02-12T07:33:27.669Z,6.20
2023-02-12T07:37:29.366Z,6.30
2023-02-12T07:41:34.056Z,6.30
2023-02-12T07:45:35.779Z,6.40
2023-02-12T07:49:37.447Z,6.40
2023-02-12T07:53:39.607Z,6.40
2023-02-12T07:57:41.279Z,6.50
2023-02-12T08:01:46.712Z,6.50
2023-02-12T08:05:48.423Z,6.60
2023-02-12T08:09:50.978Z,6.70
2023-02-12T08:13:53.021Z,6.70
2023-02-12T08:17:55.549Z,6.80
2023-02-12T08:21:57.619Z,6.90
2023-02-12T08:26:37.708Z,7.00
2023-02-12T08:30:39.465Z,7.10
2023-02-12T08:34:41.720Z,7.20
2023-02-12T08:38:44.897Z,7.30
2023-02-12T08:42:46.654Z,7.50
2023-02-12T08:46:50.832Z,7.60
2023-02-12T08:50:52.619Z,7.80
2023-02-12T08:54:54.476Z,7.70
2023-02-12T08:59:00.038Z,7.90
2023-02-12T09:03:01.746Z,8.20
2023-02-12T09:07:03.517Z,8.30
2023-02-12T09:11:10.574Z,8.40
2023-02-12T09:15:12.217Z,8.50
2023-02-12T09:19:15.211Z,8.70
2023-02-12T09:23:16.929Z,8.80
2023-02-12T09:27:18.802Z,8.90
2023-02-12T09:31:29.891Z,9.10
2023-02-12T09:35:34.916Z,9.10
2023-02-12T09:39:36.670Z,9.20
2023-02-12T09:44:06.671Z,9.40
2023-02-12T09:48:30.385Z,9.40
2023-02-12T09:52:33.376Z,9.50
2023-02-12T09:56:38.822Z,9.70
2023-02-12T10:00:40.510Z,9.70
2023-02-12T10:04:58.935Z,9.70
2023-02-12T10:09:35.785Z,10.00
2023-02-12T10:14:01.938Z,9.80
2023-02-12T10:18:09.748Z,9.60
2023-02-12T10:22:34.137Z,9.50
2023-02-12T10:26:47.542Z,9.40
2023-02-12T10:30:54.700Z,9.50
2023-02-12T10:34:56.860Z,9.90
2023-02-12T10:39:19.820Z,9.80
2023-02-12T10:43:21.539Z,9.70
2023-02-12T10:47:24.580Z,9.80
2023-02-12T10:51:48.699Z,10.00
2023-02-12T10:56:03.992Z,10.20
2023-02-12T11:00:32.065Z,10.50
2023-02-12T11:04:33.856Z,10.70
2023-02-12T11:08:38.945Z,10.80
2023-02-12T11:12:48.045Z,10.70
2023-02-12T11:16:55.181Z,10.90
2023-02-12T11:20:58.947Z,10.80
2023-02-12T11:25:08.446Z,11.00
2023-02-12T11:29:24.474Z,10.70
2023-02-12T11:33:29.195Z,10.80
2023-02-12T11:37:35.665Z,10.60
2023-02-12T11:41:40.740Z,10.50
2023-02-12T11:45:49.724Z,10.40
2023-02-12T11:49:59.939Z,10.20
2023-02-12T11:54:04.411Z,10.20
2023-02-12T11:58:21.062Z,10.10
2023-02-12T12:02:36.094Z,10.00
2023-02-12T12:06:39.707Z,10.00
2023-02-12T12:11:16.356Z,9.90
2023-02-12T12:15:52.932Z,9.80
2023-02-12T12:20:17.136Z,9.90
2023-02-12T12:24:37.116Z,9.90
2023-02-12T12:29:15.881Z,9.80
2023-02-12T12:33:41.708Z,9.90
2023-02-12T12:38:00.101Z,9.90
2023-02-12T12:42:21.408Z,9.80
2023-02-12T12:46:37.486Z,9.80
2023-02-12T12:51:09.234Z,9.90
2023-02-12T12:55:33.249Z,9.80
2023-02-12T13:00:19.740Z,9.90
2023-02-12T13:04:47.900Z,9.80
2023-02-12T13:08:55.893Z,9.80
2023-02-12T13:13:09.648Z,9.90
2023-02-12T13:17:25.842Z,10.00
2023-02-12T13:21:51.295Z,10.00
2023-02-12T13:26:18.284Z,10.20
2023-02-12T13:30:29.278Z,10.40
2023-02-12T13:34:34.534Z,10.00
2023-02-12T13:38:58.275Z,10.10
2023-02-12T13:43:23.314Z,10.10
2023-02-12T13:47:48.117Z,10.20
2023-02-12T13:52:05.152Z,10.40
2023-02-12T13:56:51.971Z,10.40
2023-02-12T14:00:53.586Z,10.10
2023-02-12T14:05:00.641Z,10.10
2023-02-12T14:09:11.312Z,10.20
2023-02-12T14:13:28.072Z,10.20
2023-02-12T14:17:30.685Z,10.20
2023-02-12T14:21:35.805Z,10.10
2023-02-12T14:25:42.039Z,10.10
2023-02-12T14:30:06.672Z,10.10
2023-02-12T14:34:08.312Z,10.00
2023-02-12T14:38:10.234Z,10.00
2023-02-12T14:42:31.874Z,9.90
2023-02-12T14:46:36.704Z,9.90
2023-02-12T14:50:51.957Z,9.90
2023-02-12T14:55:03.839Z,9.80
2023-02-12T14:59:11.883Z,9.70
2023-02-12T15:03:13.592Z,9.70
2023-02-12T15:07:24.189Z,9.70
2023-02-12T15:11:51.925Z,9.70
2023-02-12T15:16:07.096Z,9.60
2023-02-12T15:20:16.867Z,9.70
2023-02-12T15:24:26.029Z,9.60
2023-02-12T15:28:35.067Z,9.60
2023-02-12T15:32:38.410Z,9.50
2023-02-12T15:36:44.944Z,9.40
2023-02-12T15:40:55.300Z,9.40
2023-02-12T15:45:26.394Z,9.40
2023-02-12T15:49:38.747Z,9.30
2023-02-12T15:53:41.532Z,9.30
2023-02-12T15:57:54.426Z,9.30
2023-02-12T16:02:00.418Z,9.30
2023-02-12T16:06:13.660Z,9.20
2023-02-12T16:10:20.047Z,9.20
2023-02-12T16:14:31.698Z,9.10
2023-02-12T16:18:33.487Z,9.10
2023-02-12T16:22:41.064Z,9.00
2023-02-12T16:26:47.654Z,9.00
2023-02-12T16:30:51.442Z,8.90
2023-02-12T16:35:00.657Z,8.90
2023-02-12T16:39:05.148Z,8.80
2023-02-12T16:43:24.739Z,8.80
2023-02-12T16:47:26.908Z,8.80
2023-02-12T16:51:33.982Z,8.80
2023-02-12T16:55:36.659Z,8.80
2023-02-12T16:59:43.320Z,8.80
2023-02-12T17:03:47.589Z,8.80
2023-02-12T17:07:50.243Z,8.70
2023-02-12T17:11:51.973Z,8.70
2023-02-12T17:15:59.685Z,8.70
2023-02-12T17:20:01.558Z,8.70
2023-02-12T17:24:07.631Z,8.60
2023-02-12T17:28:09.366Z,8.60
2023-02-12T17:32:11.385Z,8.60
2023-02-12T17:36:13.227Z,8.70
2023-02-12T17:40:15.350Z,8.60
2023-02-12T17:44:17.119Z,8.60
2023-02-12T17:48:22.055Z,8.60
2023-02-12T17:52:23.801Z,8.60
2023-02-12T17:56:25.680Z,8.50
2023-02-12T18:00:27.482Z,8.50
2023-02-12T18:04:30.729Z,8.50
2023-02-12T18:08:32.731Z,8.50
2023-02-12T18:12:34.978Z,8.50
2023-02-12T18:16:36.713Z,8.50
2023-02-12T18:20:40.777Z,8.40
2023-02-12T18:24:44.163Z,8.40
2023-02-12T18:28:46.436Z,8.50
2023-02-12T18:32:48.126Z,8.50
2023-02-12T18:36:50.138Z,8.40
2023-02-12T18:40:51.904Z,8.40
2023-02-12T18:44:53.669Z,8.40
2023-02-12T18:48:56.170Z,8.40
2023-02-12T18:52:57.876Z,8.40
2023-02-12T18:56:59.579Z,8.40
2023-02-12T19:01:01.627Z,8.30
2023-02-12T19:05:03.422Z,8.40
2023-02-12T19:09:05.101Z,8.30
2023-02-12T19:13:06.956Z,8.30
2023-02-12T19:17:08.643Z,8.30
2023-02-12T19:21:12.883Z,8.30
2023-02-12T19:25:14.685Z,8.30
2023-02-12T19:29:16.343Z,8.20
2023-02-12T19:33:18.050Z,8.20
2023-02-12T19:37:20.026Z,8.20
2023-02-12T19:41:23.910Z,8.20
2023-02-12T19:45:25.622Z,8.20
2023-02-12T19:49:28.887Z,8.20
2023-02-12T19:53:30.599Z,8.30
2023-02-12T19:57:33.289Z,8.20
2023-02-12T20:01:35.784Z,8.20
2023-02-12T20:05:44.465Z,8.20
2023-02-12T20:09:49.914Z,8.20
2023-02-12T20:13:51.776Z,8.20
2023-02-12T20:17:53.582Z,8.10
2023-02-12T20:21:57.422Z,8.10
2023-02-12T20:25:59.107Z,8.10
2023-02-12T20:30:00.845Z,8.10
2023-02-12T20:34:06.155Z,8.10
2023-02-12T20:38:08.069Z,8.10
2023-02-12T20:42:10.018Z,8.10
2023-02-12T20:46:14.701Z,8.10
2023-02-12T20:50:16.762Z,8.10
2023-02-12T20:54:18.652Z,8.10
2023-02-12T20:58:20.333Z,8.10
2023-02-12T21:02:22.115Z,8.10
2023-02-12T21:06:24.489Z,8.00
2023-02-12T21:10:27.697Z,8.10
2023-02-12T21:14:30.403Z,8.00
2023-02-12T21:18:32.503Z,8.00
2023-02-12T21:22:34.256Z,8.00
2023-02-12T21:26:36.447Z,8.10
2023-02-12T21:30:38.197Z,8.10
2023-02-12T21:34:40.160Z,8.10
2023-02-12T21:38:44.210Z,8.10
2023-02-12T21:42:45.902Z,8.10
2023-02-12T21:46:47.731Z,8.10
2023-02-12T21:50:49.425Z,8.00
2023-02-12T21:54:51.648Z,8.00
2023-02-12T21:58:53.718Z,8.00
2023-02-12T22:02:55.431Z,8.00
2023-02-12T22:06:58.150Z,8.00
2023-02-12T22:11:03.638Z,8.00
2023-02-12T22:15:05.654Z,7.90
2023-02-12T22:19:07.819Z,8.00
2023-02-12T22:23:10.456Z,7.90
2023-02-12T22:27:12.139Z,8.00
2023-02-12T22:31:19.531Z,7.90
2023-02-12T22:35:21.307Z,7.90
2023-02-12T22:39:23.099Z,7.90
2023-02-12T22:43:24.769Z,7.90
2023-02-12T22:47:28.805Z,7.90
2023-02-12T22:51:32.317Z,8.00
2023-02-12T22:55:36.547Z,7.90
2023-02-12T22:59:38.244Z,8.00
2023-02-12T23:03:40.228Z,8.00
2023-02-12T23:07:41.990Z,8.00
2023-02-12T23:11:43.884Z,8.10
2023-02-12T23:15:45.626Z,8.00
2023-02-12T23:19:47.314Z,8.00
2023-02-12T23:23:49.081Z,8.00
2023-02-12T23:27:50.785Z,8.00
2023-02-12T23:31:52.553Z,8.00
2023-02-12T23:35:54.334Z,8.10
2023-02-12T23:39:55.979Z,8.10
2023-02-12T23:43:57.686Z,8.10
2023-02-12T23:47:59.390Z,8.20
2023-02-12T23:52:01.825Z,8.10
2023-02-12T23:56:03.690Z,8.20
